AYMO/MAS METAR and TAF weather

Enter ICAO airport designator
Station Type Date Time Source
AYMO METAR 2018/01/13 01:00 UTC NOAA

AYMO 130100Z VRB03KT 9999 BKN018 BKN300 31/24 Q1008


Station Type Date Time Source
AYMO Decoded METAR 2018/01/13 01:00 UTC NOAA

Manus Island/Momote, Papua New Guinea (AYMO) 02-03-43S 147-25-27E
Jan 12, 2018 - 08:00 PM EST / 2018.01.13 0100 UTC
Wind: Variable at 3 MPH (3 KT):0
Visibility: greater than 7 mile(s):0
Sky conditions: mostly cloudy
Temperature: 87 F (31 C)
Heat index: 95.7 F (35.4 C):1
Dew Point: 75 F (24 C)
Relative Humidity: 66%
Pressure (altimeter): 29.77 in. Hg (1008 hPa)
ob: AYMO 130100Z VRB03KT 9999 BKN018 BKN300 31/24 Q1008
cycle: 1

Station Type Date Time Source
AYMO TAF 2017/12/19 20:03 UTC NOAA

TAF TAF AYMO 191624Z 1920/2008 32015G26KT 9999 -SHRA SCT018 BKN140 Q 1006 1008 1007 1005


Example: see airport list